Devi Ahilyabai Holkar Airport
VAID : now visible

Airfield :











YOU CAN JOIN US ON...

 
LOGIN :

Register | Disclaimer

   EN    FR    IT 

 









Legend :    VFR   Marginal VFR   IFR   Intensive IFR   Very Intensive IFR
Visi :
Ceiling :
>= 8 km
>= 3000ft
5 to 8 km
1000 to 3000 ft
1500m to 5 km
500 to 1000 ft
800 to 1500m
200 to 500 ft
< 800m
< 200 ft
Symbols :   Thunderstorms  Fog  Heavy snow  Heavy precipitations  Wind > 20 kt






- Airport Elevation : 1850 ft
- IATA code : IDR


VAID - Devi Ahilyabai Holkar

CURRENT METAR :
  • 180300Z 00000KT 3000 HZ NSC 17/09 Q1019 NOSIG

EXPIRED METARs :
  • 180200Z 12002KT 2000 HZ NSC 13/08 Q1018 NOSIG
  • 180130Z 18003KT 3000 HZ NSC 14/09 Q1018 BECMG 4000 HZ
  • 180100Z 14003KT 4000 HZ NSC 13/09 Q1017 TEMPO 3000 HZ

TAF TAF VAID
Valid from the 18 at 03:00 until the 18 at 12:00 UTC


180200Z 1803/1812 14005KT 4000 HZ NSC
BECMG 1805/1807 09010KT 5000 HZ NSC



MET'MAP, your aeronautical weather chart ! - Copyright ORBIFLY December 2007 - Disclaimer

ORBIFLY MET'MAP TEAM :

Programming & Development : Alexandra Zaïnal
Concept & original design : Baudouin d'Aumeries
Assistance for programming : Marc-Olivier Méhu
Technical & hardware support : Manuel Goepfert

Contact : metmap@orbifly.com




SOURCES & CREDITS :

   NOAA       Earth
Advisory